Overbrook, New Jersey
Current Conditions -  °F | °C
As of 10:22 AM on Monday 24 Nov 2014 (Local Time) from KCDW Reporting Station
Overcast Overcast  
Wind Chill: 66°   Ceiling: 2900
Heat Index: 66°   Visibility: 10mi
Dew Point: 59°   Wind: 9mph
Humidity: 78%   Direction: 240°WSW
Pressure: 29.66"   Gusts: NA
Location:  40.8566°N, 74.2292°W
Report Text: KCDW 241522Z 24008KT 10SM FEW023 BKN029 OVC038 19/15 A2966 RMK AO2 T01890150
Loading
Personal Weather Stations






























Interactive Weather Map New forecast layout! Learn more

10-Day Weather Forecast

Advertisements
Track Severe Weather on mobile